Terminal Aerodrome Forecast
Issued by NWS

Home | Current Version | Previous Version | Text Only | Print | Product List | Glossary On
Versions: 1 2 3 4 5 6 7 8 9 10 11 12 13 14 15 16 17 18 19 20 21 22 23 24 25 26 27 28 29 30
000
FTUS41 KBOX 011120
TAFBED
TAF
KBED 011120Z 0112/0212 25005KT P6SM SCT060
     FM011500 23006KT P6SM VCSH BKN060
     FM011700 25010KT P6SM BKN060
     FM012000 27012KT P6SM VCSH BKN060
     FM012200 27010KT P6SM FEW060 SCT080
     FM020900 27004KT P6SM FEW250=

USA.gov is the U.S. government's official web portal to all federal, state and local government web resources and services.